createdAt,value
2022-10-23T00:01:12.469Z,12.39
2022-10-23T00:03:38.970Z,12.37
2022-10-23T00:06:05.712Z,12.37
2022-10-23T00:08:32.279Z,12.35
2022-10-23T00:10:58.860Z,12.32
2022-10-23T00:13:25.593Z,12.27
2022-10-23T00:18:19.275Z,12.20
2022-10-23T00:20:45.849Z,12.19
2022-10-23T00:23:12.604Z,12.20
2022-10-23T00:25:39.192Z,12.20
2022-10-23T00:28:05.932Z,12.21
2022-10-23T00:30:32.503Z,12.21
2022-10-23T00:32:59.276Z,12.20
2022-10-23T00:35:25.855Z,12.20
2022-10-23T00:37:52.529Z,12.19
2022-10-23T00:40:19.745Z,12.16
2022-10-23T00:42:46.353Z,12.16
2022-10-23T00:45:21.805Z,12.13
2022-10-23T00:47:49.409Z,12.14
2022-10-23T00:50:17.349Z,12.14
2022-10-23T00:52:48.474Z,12.11
2022-10-23T00:55:16.860Z,12.06
2022-10-23T00:57:46.046Z,12.04
2022-10-23T01:00:16.677Z,11.96
2022-10-23T01:02:43.594Z,11.96
2022-10-23T01:05:10.875Z,11.95
2022-10-23T01:07:50.299Z,11.95
2022-10-23T01:10:31.526Z,11.96
2022-10-23T01:13:19.316Z,11.93
2022-10-23T01:15:57.328Z,11.95
2022-10-23T01:18:31.361Z,11.93
2022-10-23T01:21:21.680Z,11.92
2022-10-23T01:24:24.572Z,11.88
2022-10-23T01:27:14.873Z,11.88
2022-10-23T01:29:49.224Z,11.88
2022-10-23T01:32:28.596Z,11.88
2022-10-23T01:35:08.350Z,11.89
2022-10-23T01:37:47.845Z,11.89
2022-10-23T01:40:24.644Z,11.90
2022-10-23T01:42:54.594Z,11.90
2022-10-23T01:45:33.690Z,11.87
2022-10-23T01:48:02.453Z,11.86
2022-10-23T01:50:31.370Z,11.86
2022-10-23T01:53:03.975Z,11.83
2022-10-23T01:55:32.518Z,11.79
2022-10-23T01:58:03.912Z,11.77
2022-10-23T02:00:40.040Z,11.73
2022-10-23T02:03:08.628Z,11.68
2022-10-23T02:05:35.574Z,11.68
2022-10-23T02:08:03.038Z,11.70
2022-10-23T02:10:39.336Z,11.69
2022-10-23T02:13:23.949Z,11.68
2022-10-23T02:16:05.403Z,11.66
2022-10-23T02:19:07.869Z,11.58
2022-10-23T02:21:53.454Z,11.53
2022-10-23T02:24:30.967Z,11.52
2022-10-23T02:27:03.614Z,11.46
2022-10-23T02:29:38.266Z,11.51
2022-10-23T02:32:08.698Z,11.55
2022-10-23T02:34:35.618Z,11.58
2022-10-23T02:37:02.937Z,11.58
2022-10-23T02:39:29.904Z,11.57
2022-10-23T02:42:14.314Z,11.55
2022-10-23T02:44:55.266Z,11.56
2022-10-23T02:47:54.744Z,11.55
2022-10-23T02:50:30.932Z,11.56
2022-10-23T02:53:17.723Z,11.56
2022-10-23T02:56:01.532Z,11.57
2022-10-23T02:58:36.007Z,11.50
2022-10-23T03:01:08.776Z,11.46
2022-10-23T03:03:41.959Z,11.46
2022-10-23T03:06:09.103Z,11.51
2022-10-23T03:08:49.457Z,11.47
2022-10-23T03:11:18.247Z,11.52
2022-10-23T03:13:44.921Z,11.53
2022-10-23T03:16:14.094Z,11.52
2022-10-23T03:18:41.022Z,11.54
2022-10-23T03:21:08.291Z,11.47
2022-10-23T03:23:35.115Z,11.52
2022-10-23T03:26:02.570Z,11.52
2022-10-23T03:28:34.887Z,11.52
2022-10-23T03:31:02.610Z,11.51
2022-10-23T03:33:31.287Z,11.50
2022-10-23T03:36:05.564Z,11.51
2022-10-23T03:38:32.559Z,11.53
2022-10-23T03:40:59.113Z,11.53
2022-10-23T03:43:27.994Z,11.50
2022-10-23T03:45:56.919Z,11.44
2022-10-23T03:48:25.407Z,11.38
2022-10-23T03:50:52.159Z,11.36
2022-10-23T03:53:19.038Z,11.35
2022-10-23T03:55:45.938Z,11.32
2022-10-23T03:58:12.542Z,11.29
2022-10-23T04:00:39.272Z,11.29
2022-10-23T04:03:06.601Z,11.29
2022-10-23T04:05:37.137Z,11.30
2022-10-23T04:08:03.888Z,11.31
2022-10-23T04:10:32.583Z,11.31
2022-10-23T04:12:59.342Z,11.32
2022-10-23T04:15:27.485Z,11.34
2022-10-23T04:17:54.409Z,11.36
2022-10-23T04:20:21.179Z,11.38
2022-10-23T04:22:47.830Z,11.42
2022-10-23T04:25:15.959Z,11.43
2022-10-23T04:27:43.117Z,11.44
2022-10-23T04:30:11.398Z,11.45
2022-10-23T04:32:38.374Z,11.44
2022-10-23T04:35:06.005Z,11.44
2022-10-23T04:37:32.554Z,11.44
2022-10-23T04:39:59.863Z,11.45
2022-10-23T04:44:54.220Z,11.49
2022-10-23T04:47:20.776Z,11.51
2022-10-23T04:49:56.203Z,11.52
2022-10-23T04:52:33.084Z,11.53
2022-10-23T04:55:20.299Z,11.52
2022-10-23T04:58:06.793Z,11.49
2022-10-23T05:00:33.599Z,11.47
2022-10-23T05:03:00.897Z,11.47
2022-10-23T05:05:33.671Z,11.48
2022-10-23T05:08:06.361Z,11.49
2022-10-23T05:10:42.721Z,11.52
2022-10-23T05:13:12.916Z,11.54
2022-10-23T05:15:40.376Z,11.56
2022-10-23T05:18:14.514Z,11.57
2022-10-23T05:20:42.157Z,11.58
2022-10-23T05:23:12.662Z,11.58
2022-10-23T05:25:40.439Z,11.56
2022-10-23T05:28:15.127Z,11.55
2022-10-23T05:30:42.269Z,11.56
2022-10-23T05:33:11.076Z,11.57
2022-10-23T05:35:43.738Z,11.58
2022-10-23T05:38:12.518Z,11.60
2022-10-23T05:43:08.363Z,11.62
2022-10-23T05:45:46.467Z,11.61
2022-10-23T05:48:34.639Z,11.60
2022-10-23T05:51:21.569Z,11.58
2022-10-23T05:54:00.914Z,11.57
2022-10-23T05:56:32.664Z,11.57
2022-10-23T05:59:09.652Z,11.60
2022-10-23T06:01:47.749Z,11.62
2022-10-23T06:04:18.185Z,11.63
2022-10-23T06:06:56.376Z,11.63
2022-10-23T06:09:23.134Z,11.62
2022-10-23T06:11:53.447Z,11.63
2022-10-23T06:14:20.737Z,11.65
2022-10-23T06:16:48.269Z,11.69
2022-10-23T06:19:14.787Z,11.75
2022-10-23T06:21:41.640Z,11.80
2022-10-23T06:24:09.493Z,11.88
2022-10-23T06:26:48.565Z,11.98
2022-10-23T06:29:20.696Z,12.09
2022-10-23T06:31:47.438Z,12.19
2022-10-23T06:34:14.183Z,12.28
2022-10-23T06:36:41.431Z,12.36
2022-10-23T06:39:27.283Z,12.40
2022-10-23T06:42:04.382Z,12.41
2022-10-23T06:44:50.830Z,12.39
2022-10-23T06:47:28.319Z,12.36
2022-10-23T06:50:15.649Z,12.34
2022-10-23T06:52:47.801Z,12.35
2022-10-23T06:55:17.716Z,12.39
2022-10-23T06:57:44.841Z,12.44
2022-10-23T07:00:12.693Z,12.49
2022-10-23T07:02:45.751Z,12.57
2022-10-23T07:05:13.892Z,12.64
2022-10-23T07:07:41.227Z,12.71
2022-10-23T07:10:09.507Z,12.80
2022-10-23T07:12:41.620Z,12.86
2022-10-23T07:15:23.809Z,12.89
2022-10-23T07:17:50.588Z,12.96
2022-10-23T07:20:17.488Z,13.02
2022-10-23T07:22:52.369Z,13.06
2022-10-23T07:25:26.730Z,13.09
2022-10-23T07:27:55.131Z,13.13
2022-10-23T07:30:22.358Z,13.16
2022-10-23T07:32:51.703Z,13.18
2022-10-23T07:35:39.436Z,13.18
2022-10-23T07:38:15.257Z,13.20
2022-10-23T07:40:44.948Z,13.23
2022-10-23T07:43:13.895Z,13.24
2022-10-23T07:45:40.694Z,13.23
2022-10-23T07:48:14.799Z,13.20
2022-10-23T07:51:02.372Z,13.15
2022-10-23T07:53:30.405Z,13.14
2022-10-23T07:56:04.491Z,13.12
2022-10-23T07:58:53.520Z,13.14
2022-10-23T08:01:29.539Z,13.13
2022-10-23T08:03:56.223Z,13.11
2022-10-23T08:06:23.270Z,13.08
2022-10-23T08:08:50.197Z,13.07
2022-10-23T08:11:24.165Z,13.07
2022-10-23T08:13:53.778Z,13.07
2022-10-23T08:16:21.735Z,13.08
2022-10-23T08:19:08.426Z,13.11
2022-10-23T08:21:37.711Z,13.14
2022-10-23T08:24:04.942Z,13.17
2022-10-23T08:26:31.959Z,13.23
2022-10-23T08:28:59.862Z,13.27
2022-10-23T08:31:27.628Z,13.31
2022-10-23T08:34:09.738Z,13.36
2022-10-23T08:36:38.601Z,13.40
2022-10-23T08:39:06.977Z,13.45
2022-10-23T08:41:42.123Z,13.50
2022-10-23T08:44:29.087Z,13.57
2022-10-23T08:47:11.938Z,13.65
2022-10-23T08:49:56.023Z,13.74
2022-10-23T08:52:38.835Z,13.84
2022-10-23T08:55:29.416Z,13.95
2022-10-23T08:58:04.983Z,14.06
2022-10-23T09:00:32.328Z,14.10
2022-10-23T09:03:04.983Z,14.17
2022-10-23T09:05:45.015Z,14.24
2022-10-23T09:08:25.196Z,14.34
2022-10-23T09:11:02.114Z,14.44
2022-10-23T09:14:04.985Z,14.48
2022-10-23T09:17:05.155Z,14.50
2022-10-23T09:19:32.519Z,14.52
2022-10-23T09:21:59.806Z,14.52
2022-10-23T09:24:30.926Z,14.53
2022-10-23T09:26:59.978Z,14.56
2022-10-23T09:29:32.427Z,14.59
2022-10-23T09:32:00.818Z,14.56
2022-10-23T09:34:30.257Z,14.61
2022-10-23T09:37:00.588Z,14.76
2022-10-23T09:39:31.618Z,14.91
2022-10-23T09:42:01.895Z,14.99
2022-10-23T09:44:31.676Z,15.04
2022-10-23T09:47:11.457Z,15.14
2022-10-23T09:49:46.161Z,15.37
2022-10-23T09:52:35.711Z,15.58
2022-10-23T09:55:20.120Z,15.76
2022-10-23T09:57:47.516Z,15.99
2022-10-23T10:00:19.464Z,16.26
2022-10-23T10:03:00.220Z,16.56
2022-10-23T10:05:55.292Z,16.79
2022-10-23T10:08:34.735Z,16.80
2022-10-23T10:11:22.899Z,16.86
2022-10-23T10:14:04.748Z,16.91
2022-10-23T10:16:53.865Z,16.99
2022-10-23T10:19:38.940Z,17.25
2022-10-23T10:22:26.483Z,17.51
2022-10-23T10:25:29.307Z,17.76
2022-10-23T10:28:19.290Z,18.04
2022-10-23T10:31:09.928Z,18.17
2022-10-23T10:33:55.452Z,18.30
2022-10-23T10:36:41.315Z,18.59
2022-10-23T10:39:24.540Z,18.60
2022-10-23T10:42:06.015Z,18.71
2022-10-23T10:44:48.406Z,18.54
2022-10-23T10:47:25.500Z,18.32
2022-10-23T10:50:06.816Z,18.45
2022-10-23T10:52:58.309Z,18.81
2022-10-23T10:55:44.420Z,18.98
2022-10-23T10:58:27.508Z,18.89
2022-10-23T11:00:58.501Z,18.70
2022-10-23T11:03:39.015Z,18.50
2022-10-23T11:06:14.484Z,18.30
2022-10-23T11:08:56.193Z,18.03
2022-10-23T11:11:35.695Z,17.87
2022-10-23T11:14:03.035Z,17.83
2022-10-23T11:16:41.257Z,17.67
2022-10-23T11:19:33.496Z,17.58
2022-10-23T11:22:09.697Z,17.39
2022-10-23T11:24:49.069Z,17.80
2022-10-23T11:27:44.565Z,18.23
2022-10-23T11:30:27.424Z,18.71
2022-10-23T11:33:30.443Z,19.26
2022-10-23T11:36:06.425Z,19.94
2022-10-23T11:38:36.103Z,20.24
2022-10-23T11:41:06.312Z,20.51
2022-10-23T11:43:46.373Z,20.27
2022-10-23T11:46:28.748Z,20.14
2022-10-23T11:48:58.245Z,20.74
2022-10-23T11:51:35.614Z,21.17
2022-10-23T11:54:23.684Z,21.18
2022-10-23T11:57:16.489Z,21.53
2022-10-23T11:59:56.441Z,21.99
2022-10-23T12:02:37.685Z,22.37
2022-10-23T12:05:17.229Z,22.10
2022-10-23T12:07:45.612Z,22.38
2022-10-23T12:10:26.651Z,22.36
2022-10-23T12:12:59.370Z,22.34
2022-10-23T12:15:27.064Z,22.06
2022-10-23T12:18:07.202Z,22.47
2022-10-23T12:20:43.820Z,22.74
2022-10-23T12:23:38.449Z,23.13
2022-10-23T12:26:25.882Z,23.14
2022-10-23T12:29:16.930Z,23.33
2022-10-23T12:32:07.238Z,23.80
2022-10-23T12:34:49.826Z,24.06
2022-10-23T12:37:39.234Z,24.10
2022-10-23T12:40:08.058Z,24.42
2022-10-23T12:42:35.197Z,24.54
2022-10-23T12:45:23.195Z,24.45
2022-10-23T12:47:51.279Z,24.59
2022-10-23T12:50:20.876Z,24.59
2022-10-23T12:52:53.835Z,25.05
2022-10-23T12:55:21.986Z,25.10
2022-10-23T12:57:49.303Z,24.14
2022-10-23T13:00:19.872Z,24.28
2022-10-23T13:03:04.554Z,25.08
2022-10-23T13:05:31.958Z,25.20
2022-10-23T13:08:01.404Z,24.33
2022-10-23T13:10:38.857Z,23.87
2022-10-23T13:13:07.689Z,23.36
2022-10-23T13:15:43.515Z,22.66
2022-10-23T13:18:13.576Z,22.62
2022-10-23T13:20:55.231Z,22.54
2022-10-23T13:23:31.438Z,22.73
2022-10-23T13:25:59.822Z,22.98
2022-10-23T13:28:42.025Z,22.22
2022-10-23T13:31:31.573Z,22.16
2022-10-23T13:34:06.730Z,22.10
2022-10-23T13:36:36.239Z,22.86
2022-10-23T13:39:14.499Z,23.14
2022-10-23T13:41:45.527Z,23.22
2022-10-23T13:44:14.491Z,22.95
2022-10-23T13:46:41.676Z,22.35
2022-10-23T13:49:08.876Z,22.17
2022-10-23T13:51:42.599Z,22.15
2022-10-23T13:54:15.113Z,21.77
2022-10-23T13:56:41.795Z,21.89
2022-10-23T13:59:10.589Z,22.16
2022-10-23T14:01:37.706Z,22.15
2022-10-23T14:04:05.498Z,22.30
2022-10-23T14:06:33.164Z,22.01
2022-10-23T14:09:02.567Z,21.48
2022-10-23T14:11:29.099Z,21.61
2022-10-23T14:13:55.547Z,22.07
2022-10-23T14:16:23.263Z,22.42
2022-10-23T14:18:49.851Z,22.47
2022-10-23T14:21:19.426Z,22.07
2022-10-23T14:23:47.308Z,22.06
2022-10-23T14:26:20.220Z,21.80
2022-10-23T14:28:46.951Z,21.83
2022-10-23T14:31:16.231Z,21.65
2022-10-23T14:33:44.403Z,21.45
2022-10-23T14:36:12.240Z,21.49
2022-10-23T14:38:38.996Z,21.66
2022-10-23T14:41:14.717Z,21.56
2022-10-23T14:43:42.534Z,21.58
2022-10-23T14:46:14.447Z,21.76
2022-10-23T14:48:45.477Z,21.75
2022-10-23T14:51:22.115Z,21.56
2022-10-23T14:53:58.710Z,21.07
2022-10-23T14:56:27.003Z,20.61
2022-10-23T14:58:54.599Z,20.30
2022-10-23T15:01:21.393Z,19.89
2022-10-23T15:03:54.328Z,19.43
2022-10-23T15:06:21.107Z,19.10
2022-10-23T15:08:50.599Z,18.88
2022-10-23T15:11:17.611Z,18.59
2022-10-23T15:13:44.303Z,18.26
2022-10-23T15:16:11.540Z,17.87
2022-10-23T15:21:06.652Z,17.16
2022-10-23T15:23:34.841Z,16.80
2022-10-23T15:26:05.088Z,16.44
2022-10-23T15:28:34.007Z,16.08
2022-10-23T15:31:01.535Z,15.71
2022-10-23T15:33:28.374Z,15.38
2022-10-23T15:35:55.907Z,15.09
2022-10-23T15:38:23.965Z,14.86
2022-10-23T15:40:53.028Z,14.65
2022-10-23T15:43:19.670Z,14.42
2022-10-23T15:45:47.023Z,14.20
2022-10-23T15:48:13.592Z,14.03
2022-10-23T15:50:40.429Z,13.86
2022-10-23T15:53:07.069Z,13.70
2022-10-23T15:55:33.706Z,13.54
2022-10-23T15:58:09.699Z,13.42
2022-10-23T16:00:37.522Z,13.28
2022-10-23T16:03:05.300Z,13.17
2022-10-23T16:05:31.921Z,13.06
2022-10-23T16:07:58.560Z,12.96
2022-10-23T16:10:25.187Z,12.89
2022-10-23T16:12:51.949Z,12.81
2022-10-23T16:15:18.563Z,12.74
2022-10-23T16:17:45.642Z,12.68
2022-10-23T16:20:15.473Z,12.60
2022-10-23T16:22:44.198Z,12.52
2022-10-23T16:25:11.650Z,12.45
2022-10-23T16:27:38.237Z,12.37
2022-10-23T16:30:08.405Z,12.31
2022-10-23T16:32:35.859Z,12.25
2022-10-23T16:35:02.406Z,12.19
2022-10-23T16:37:38.214Z,12.13
2022-10-23T16:40:10.404Z,12.05
2022-10-23T16:42:47.938Z,11.98
2022-10-23T16:45:23.789Z,11.91
2022-10-23T16:47:50.497Z,11.85
2022-10-23T16:50:17.187Z,11.80
2022-10-23T16:52:44.202Z,11.76
2022-10-23T16:55:11.067Z,11.72
2022-10-23T16:57:37.508Z,11.69
2022-10-23T17:00:05.378Z,11.67
2022-10-23T17:02:34.652Z,11.67
2022-10-23T17:05:01.181Z,11.67
2022-10-23T17:07:27.644Z,11.68
2022-10-23T17:09:54.098Z,11.71
2022-10-23T17:12:20.504Z,11.72
2022-10-23T17:14:47.069Z,11.74
2022-10-23T17:17:13.671Z,11.77
2022-10-23T17:19:45.482Z,11.78
2022-10-23T17:22:13.705Z,11.79
2022-10-23T17:24:42.150Z,11.80
2022-10-23T17:27:09.204Z,11.76
2022-10-23T17:29:35.834Z,11.72
2022-10-23T17:32:03.408Z,11.67
2022-10-23T17:34:29.969Z,11.61
2022-10-23T17:36:57.124Z,11.56
2022-10-23T17:39:28.238Z,11.49
2022-10-23T17:41:55.596Z,11.42
2022-10-23T17:44:22.360Z,11.36
2022-10-23T17:46:52.789Z,11.31
2022-10-23T17:49:19.968Z,11.25
2022-10-23T17:51:52.000Z,11.20
2022-10-23T17:54:18.685Z,11.16
2022-10-23T17:56:45.481Z,11.11
2022-10-23T17:59:13.917Z,11.06
2022-10-23T18:01:44.328Z,11.01
2022-10-23T18:04:10.915Z,10.95
2022-10-23T18:06:43.689Z,10.92
2022-10-23T18:09:11.357Z,10.88
2022-10-23T18:11:45.208Z,10.86
2022-10-23T18:14:13.710Z,10.86
2022-10-23T18:16:40.317Z,10.85
2022-10-23T18:19:07.917Z,10.86
2022-10-23T18:21:35.284Z,10.87
2022-10-23T18:24:02.633Z,10.90
2022-10-23T18:26:31.535Z,10.92
2022-10-23T18:28:59.097Z,10.95
2022-10-23T18:31:29.505Z,10.96
2022-10-23T18:33:58.081Z,10.95
2022-10-23T18:36:40.035Z,10.97
2022-10-23T18:39:08.776Z,10.97
2022-10-23T18:41:38.559Z,10.96
2022-10-23T18:44:06.614Z,10.93
2022-10-23T18:46:33.653Z,10.89
2022-10-23T18:49:00.144Z,10.85
2022-10-23T18:51:29.814Z,10.80
2022-10-23T18:53:59.428Z,10.75
2022-10-23T18:56:27.137Z,10.70
2022-10-23T18:58:56.034Z,10.64
2022-10-23T19:01:24.312Z,10.57
2022-10-23T19:03:51.018Z,10.52
2022-10-23T19:06:18.946Z,10.46
2022-10-23T19:08:46.461Z,10.41
2022-10-23T19:11:15.253Z,10.35
2022-10-23T19:13:42.329Z,10.31
2022-10-23T19:16:17.537Z,10.29
2022-10-23T19:18:48.385Z,10.28
2022-10-23T19:21:18.404Z,10.28
2022-10-23T19:23:45.726Z,10.27
2022-10-23T19:26:12.893Z,10.26
2022-10-23T19:28:43.236Z,10.26
2022-10-23T19:31:10.673Z,10.24
2022-10-23T19:33:38.462Z,10.23
2022-10-23T19:36:07.910Z,10.23
2022-10-23T19:38:39.528Z,10.21
2022-10-23T19:41:06.051Z,10.20
2022-10-23T19:43:32.598Z,10.19
2022-10-23T19:46:03.928Z,10.15
2022-10-23T19:48:33.055Z,10.13
2022-10-23T19:50:59.581Z,10.11
2022-10-23T19:53:26.305Z,10.07
2022-10-23T19:56:02.331Z,10.01
2022-10-23T19:58:29.325Z,9.96
2022-10-23T20:00:56.152Z,9.88
2022-10-23T20:03:23.279Z,9.83
2022-10-23T20:05:49.889Z,9.78
2022-10-23T20:08:16.416Z,9.70
2022-10-23T20:10:45.265Z,9.66
2022-10-23T20:13:20.458Z,9.61
2022-10-23T20:15:48.578Z,9.53
2022-10-23T20:18:15.212Z,9.45
2022-10-23T20:20:41.979Z,9.38
2022-10-23T20:23:08.853Z,9.31
2022-10-23T20:25:35.357Z,9.27
2022-10-23T20:28:02.399Z,9.27
2022-10-23T20:30:28.990Z,9.26
2022-10-23T20:32:55.667Z,9.26
2022-10-23T20:35:22.750Z,9.28
2022-10-23T20:37:49.355Z,9.28
2022-10-23T20:40:16.258Z,9.32
2022-10-23T20:42:42.826Z,9.37
2022-10-23T20:45:09.955Z,9.35
2022-10-23T20:47:36.511Z,9.30
2022-10-23T20:50:03.286Z,9.24
2022-10-23T20:54:58.275Z,9.17
2022-10-23T20:57:24.798Z,9.10
2022-10-23T20:59:52.581Z,9.08
2022-10-23T21:02:19.306Z,9.08
2022-10-23T21:04:46.948Z,9.05
2022-10-23T21:07:13.510Z,9.01
2022-10-23T21:09:40.105Z,8.97
2022-10-23T21:12:07.719Z,8.96
2022-10-23T21:14:35.276Z,8.94
2022-10-23T21:17:02.366Z,8.92
2022-10-23T21:19:28.862Z,8.86
2022-10-23T21:21:55.452Z,8.83
2022-10-23T21:24:23.338Z,8.82
2022-10-23T21:26:51.172Z,8.86
2022-10-23T21:29:19.393Z,8.90
2022-10-23T21:31:55.617Z,8.95
2022-10-23T21:34:24.050Z,9.00
2022-10-23T21:37:12.527Z,9.05
2022-10-23T21:39:37.893Z,9.11
2022-10-23T21:42:04.658Z,9.17
2022-10-23T21:44:31.092Z,9.18
2022-10-23T21:46:57.624Z,9.09
2022-10-23T21:49:24.296Z,8.92
2022-10-23T21:51:50.753Z,8.72
2022-10-23T21:54:17.188Z,8.56
2022-10-23T21:56:46.608Z,8.45
2022-10-23T21:59:16.019Z,8.39
2022-10-23T22:01:45.307Z,8.35
2022-10-23T22:04:13.894Z,8.32
2022-10-23T22:06:42.225Z,8.29
2022-10-23T22:09:13.342Z,8.26
2022-10-23T22:11:40.796Z,8.22
2022-10-23T22:14:07.296Z,8.20
2022-10-23T22:16:33.786Z,8.16
2022-10-23T22:19:00.288Z,8.04
2022-10-23T22:21:28.757Z,7.94
2022-10-23T22:23:57.310Z,7.87
2022-10-23T22:26:29.090Z,7.79
2022-10-23T22:28:59.147Z,7.73
2022-10-23T22:31:29.386Z,7.71
2022-10-23T22:33:56.450Z,7.72
2022-10-23T22:36:24.400Z,7.74
2022-10-23T22:38:51.446Z,7.77
2022-10-23T22:41:18.329Z,7.79
2022-10-23T22:43:45.078Z,7.83
2022-10-23T22:46:14.902Z,7.89
2022-10-23T22:48:42.218Z,7.96
2022-10-23T22:51:11.464Z,8.03
2022-10-23T22:53:37.994Z,8.09
2022-10-23T22:56:07.822Z,8.08
2022-10-23T22:58:35.157Z,8.08
2022-10-23T23:01:07.616Z,8.11
2022-10-23T23:03:36.308Z,8.11
2022-10-23T23:06:05.631Z,8.08
2022-10-23T23:08:33.614Z,8.05
2022-10-23T23:11:00.681Z,7.99
2022-10-23T23:13:28.934Z,7.97
2022-10-23T23:15:56.420Z,7.95
2022-10-23T23:18:23.704Z,7.93
2022-10-23T23:20:50.465Z,7.90
2022-10-23T23:23:18.092Z,7.88
2022-10-23T23:25:48.148Z,7.86
2022-10-23T23:28:17.586Z,7.84
2022-10-23T23:33:11.806Z,7.75
2022-10-23T23:35:42.597Z,7.71
2022-10-23T23:38:10.359Z,7.69
2022-10-23T23:40:37.756Z,7.71
2022-10-23T23:43:04.676Z,7.76
2022-10-23T23:45:31.469Z,7.82
2022-10-23T23:47:58.818Z,7.88
2022-10-23T23:50:27.229Z,7.92
2022-10-23T23:52:54.145Z,7.97
2022-10-23T23:55:20.864Z,8.04
2022-10-23T23:57:47.615Z,8.10
